sensor_id;sensor_type;location;lat;lon;timestamp;P1;durP1;ratioP1;P2;durP2;ratioP2
70049;SDS011;57391;51.306;22.680;2024-01-10T00:01:48;84.40;;;27.60;;
70049;SDS011;57391;51.306;22.680;2024-01-10T00:03:50;88.70;;;29.50;;
70049;SDS011;57391;51.306;22.680;2024-01-10T00:05:52;80.10;;;27.80;;
70049;SDS011;57391;51.306;22.680;2024-01-10T00:07:54;95.60;;;30.50;;
70049;SDS011;57391;51.306;22.680;2024-01-10T00:09:56;84.10;;;30.00;;
70049;SDS011;57391;51.306;22.680;2024-01-10T00:11:59;83.90;;;30.40;;
70049;SDS011;57391;51.306;22.680;2024-01-10T00:14:01;90.30;;;30.60;;
70049;SDS011;57391;51.306;22.680;2024-01-10T00:16:05;83.20;;;29.20;;
70049;SDS011;57391;51.306;22.680;2024-01-10T00:18:07;76.50;;;28.30;;
70049;SDS011;57391;51.306;22.680;2024-01-10T00:20:08;89.80;;;26.70;;
70049;SDS011;57391;51.306;22.680;2024-01-10T00:22:10;87.90;;;28.30;;
70049;SDS011;57391;51.306;22.680;2024-01-10T00:24:12;68.70;;;24.30;;
70049;SDS011;57391;51.306;22.680;2024-01-10T00:26:14;64.80;;;22.60;;
70049;SDS011;57391;51.306;22.680;2024-01-10T00:28:16;77.60;;;25.30;;
70049;SDS011;57391;51.306;22.680;2024-01-10T00:30:19;58.90;;;22.20;;
70049;SDS011;57391;51.306;22.680;2024-01-10T00:32:21;70.80;;;24.00;;
70049;SDS011;57391;51.306;22.680;2024-01-10T00:34:23;69.20;;;23.60;;
70049;SDS011;57391;51.306;22.680;2024-01-10T00:36:25;70.60;;;23.70;;
70049;SDS011;57391;51.306;22.680;2024-01-10T00:38:27;74.00;;;23.70;;
70049;SDS011;57391;51.306;22.680;2024-01-10T00:40:29;55.40;;;19.30;;
70049;SDS011;57391;51.306;22.680;2024-01-10T00:42:30;54.10;;;19.90;;
70049;SDS011;57391;51.306;22.680;2024-01-10T00:44:32;66.60;;;23.10;;
70049;SDS011;57391;51.306;22.680;2024-01-10T00:46:34;61.50;;;21.60;;
70049;SDS011;57391;51.306;22.680;2024-01-10T00:48:35;54.80;;;19.00;;
70049;SDS011;57391;51.306;22.680;2024-01-10T00:50:37;70.90;;;22.90;;
70049;SDS011;57391;51.306;22.680;2024-01-10T00:52:39;55.50;;;18.70;;
70049;SDS011;57391;51.306;22.680;2024-01-10T00:54:41;60.40;;;20.00;;
70049;SDS011;57391;51.306;22.680;2024-01-10T00:56:42;63.70;;;21.90;;
70049;SDS011;57391;51.306;22.680;2024-01-10T00:58:44;62.70;;;21.60;;
70049;SDS011;57391;51.306;22.680;2024-01-10T01:00:46;55.70;;;19.40;;
70049;SDS011;57391;51.306;22.680;2024-01-10T01:02:47;60.90;;;23.20;;
70049;SDS011;57391;51.306;22.680;2024-01-10T01:04:49;59.90;;;21.80;;
70049;SDS011;57391;51.306;22.680;2024-01-10T01:06:51;65.50;;;23.10;;
70049;SDS011;57391;51.306;22.680;2024-01-10T01:08:52;56.10;;;21.50;;
70049;SDS011;57391;51.306;22.680;2024-01-10T01:10:54;67.30;;;23.00;;
70049;SDS011;57391;51.306;22.680;2024-01-10T01:12:56;61.90;;;21.50;;
70049;SDS011;57391;51.306;22.680;2024-01-10T01:14:57;62.60;;;21.80;;
70049;SDS011;57391;51.306;22.680;2024-01-10T01:16:59;62.70;;;22.00;;
70049;SDS011;57391;51.306;22.680;2024-01-10T01:19:01;67.40;;;25.00;;
70049;SDS011;57391;51.306;22.680;2024-01-10T01:21:03;59.40;;;21.80;;
70049;SDS011;57391;51.306;22.680;2024-01-10T01:23:04;66.50;;;24.90;;
70049;SDS011;57391;51.306;22.680;2024-01-10T01:25:07;71.00;;;26.20;;
70049;SDS011;57391;51.306;22.680;2024-01-10T01:27:09;72.70;;;26.30;;
70049;SDS011;57391;51.306;22.680;2024-01-10T01:29:10;70.00;;;25.30;;
70049;SDS011;57391;51.306;22.680;2024-01-10T01:31:12;65.30;;;25.20;;
70049;SDS011;57391;51.306;22.680;2024-01-10T01:33:14;69.80;;;26.50;;
70049;SDS011;57391;51.306;22.680;2024-01-10T01:35:16;69.60;;;25.60;;
70049;SDS011;57391;51.306;22.680;2024-01-10T01:37:22;69.80;;;24.90;;
70049;SDS011;57391;51.306;22.680;2024-01-10T01:39:24;59.00;;;22.20;;
70049;SDS011;57391;51.306;22.680;2024-01-10T01:41:26;61.80;;;24.30;;
70049;SDS011;57391;51.306;22.680;2024-01-10T01:43:28;66.40;;;23.50;;
70049;SDS011;57391;51.306;22.680;2024-01-10T01:45:29;67.10;;;24.20;;
70049;SDS011;57391;51.306;22.680;2024-01-10T01:47:32;58.20;;;22.50;;
70049;SDS011;57391;51.306;22.680;2024-01-10T01:49:33;58.20;;;21.90;;
70049;SDS011;57391;51.306;22.680;2024-01-10T01:51:36;76.30;;;25.70;;
70049;SDS011;57391;51.306;22.680;2024-01-10T01:53:39;64.20;;;22.60;;
70049;SDS011;57391;51.306;22.680;2024-01-10T01:55:43;62.60;;;22.80;;
70049;SDS011;57391;51.306;22.680;2024-01-10T01:57:46;61.40;;;23.60;;
70049;SDS011;57391;51.306;22.680;2024-01-10T01:59:47;71.60;;;26.50;;
70049;SDS011;57391;51.306;22.680;2024-01-10T02:01:51;64.70;;;23.20;;
70049;SDS011;57391;51.306;22.680;2024-01-10T02:03:55;69.90;;;24.40;;
70049;SDS011;57391;51.306;22.680;2024-01-10T02:05:58;65.50;;;22.70;;
70049;SDS011;57391;51.306;22.680;2024-01-10T02:08:00;59.80;;;24.20;;
70049;SDS011;57391;51.306;22.680;2024-01-10T02:10:02;73.00;;;24.60;;
70049;SDS011;57391;51.306;22.680;2024-01-10T02:12:05;62.90;;;24.20;;
70049;SDS011;57391;51.306;22.680;2024-01-10T02:14:07;67.60;;;23.20;;
70049;SDS011;57391;51.306;22.680;2024-01-10T02:16:08;65.00;;;23.40;;
70049;SDS011;57391;51.306;22.680;2024-01-10T02:18:11;62.20;;;24.30;;
70049;SDS011;57391;51.306;22.680;2024-01-10T02:20:16;63.60;;;22.80;;
70049;SDS011;57391;51.306;22.680;2024-01-10T02:22:22;67.80;;;22.70;;
70049;SDS011;57391;51.306;22.680;2024-01-10T02:24:23;63.80;;;24.50;;
70049;SDS011;57391;51.306;22.680;2024-01-10T02:26:25;63.90;;;22.40;;
70049;SDS011;57391;51.306;22.680;2024-01-10T02:28:28;61.70;;;21.70;;
70049;SDS011;57391;51.306;22.680;2024-01-10T02:30:30;58.00;;;22.20;;
70049;SDS011;57391;51.306;22.680;2024-01-10T02:32:32;63.00;;;21.50;;
70049;SDS011;57391;51.306;22.680;2024-01-10T02:34:33;62.30;;;22.30;;
70049;SDS011;57391;51.306;22.680;2024-01-10T02:36:35;56.90;;;21.80;;
70049;SDS011;57391;51.306;22.680;2024-01-10T02:38:37;60.70;;;21.70;;
70049;SDS011;57391;51.306;22.680;2024-01-10T02:40:39;52.90;;;21.30;;
70049;SDS011;57391;51.306;22.680;2024-01-10T02:42:41;61.40;;;21.90;;
70049;SDS011;57391;51.306;22.680;2024-01-10T02:44:43;59.00;;;20.50;;
70049;SDS011;57391;51.306;22.680;2024-01-10T02:46:45;58.00;;;20.10;;
70049;SDS011;57391;51.306;22.680;2024-01-10T02:48:47;58.70;;;22.00;;
70049;SDS011;57391;51.306;22.680;2024-01-10T02:50:48;53.90;;;20.60;;
70049;SDS011;57391;51.306;22.680;2024-01-10T02:52:50;61.70;;;22.20;;
70049;SDS011;57391;51.306;22.680;2024-01-10T02:54:52;57.10;;;19.60;;
70049;SDS011;57391;51.306;22.680;2024-01-10T02:56:54;51.70;;;18.50;;
70049;SDS011;57391;51.306;22.680;2024-01-10T02:58:56;52.50;;;18.40;;
70049;SDS011;57391;51.306;22.680;2024-01-10T03:00:58;56.70;;;21.20;;
70049;SDS011;57391;51.306;22.680;2024-01-10T03:03:00;61.50;;;22.20;;
70049;SDS011;57391;51.306;22.680;2024-01-10T03:05:02;59.60;;;20.50;;
70049;SDS011;57391;51.306;22.680;2024-01-10T03:07:04;53.20;;;18.60;;
70049;SDS011;57391;51.306;22.680;2024-01-10T03:09:06;54.60;;;18.30;;
70049;SDS011;57391;51.306;22.680;2024-01-10T03:11:07;48.80;;;19.20;;
70049;SDS011;57391;51.306;22.680;2024-01-10T03:13:09;57.60;;;19.80;;
70049;SDS011;57391;51.306;22.680;2024-01-10T03:15:11;60.40;;;20.50;;
70049;SDS011;57391;51.306;22.680;2024-01-10T03:17:13;48.00;;;18.50;;
70049;SDS011;57391;51.306;22.680;2024-01-10T03:19:15;53.10;;;20.10;;
70049;SDS011;57391;51.306;22.680;2024-01-10T03:21:17;53.00;;;19.90;;
70049;SDS011;57391;51.306;22.680;2024-01-10T03:23:24;52.00;;;18.80;;
70049;SDS011;57391;51.306;22.680;2024-01-10T03:25:26;48.20;;;18.30;;
70049;SDS011;57391;51.306;22.680;2024-01-10T03:27:27;50.70;;;18.60;;
70049;SDS011;57391;51.306;22.680;2024-01-10T03:29:29;39.30;;;15.90;;
70049;SDS011;57391;51.306;22.680;2024-01-10T03:31:31;48.60;;;17.00;;
70049;SDS011;57391;51.306;22.680;2024-01-10T03:33:33;46.30;;;17.80;;
70049;SDS011;57391;51.306;22.680;2024-01-10T03:35:34;45.70;;;17.90;;
70049;SDS011;57391;51.306;22.680;2024-01-10T03:37:36;55.10;;;20.40;;
70049;SDS011;57391;51.306;22.680;2024-01-10T03:39:38;46.40;;;17.80;;
70049;SDS011;57391;51.306;22.680;2024-01-10T03:41:39;51.80;;;16.50;;
70049;SDS011;57391;51.306;22.680;2024-01-10T03:43:41;44.90;;;15.70;;
70049;SDS011;57391;51.306;22.680;2024-01-10T03:45:43;38.20;;;14.60;;
70049;SDS011;57391;51.306;22.680;2024-01-10T03:47:45;39.30;;;15.70;;
70049;SDS011;57391;51.306;22.680;2024-01-10T03:49:51;45.70;;;16.40;;
70049;SDS011;57391;51.306;22.680;2024-01-10T03:51:52;38.70;;;14.80;;
70049;SDS011;57391;51.306;22.680;2024-01-10T03:53:54;38.40;;;14.10;;
70049;SDS011;57391;51.306;22.680;2024-01-10T03:55:56;43.50;;;15.40;;
70049;SDS011;57391;51.306;22.680;2024-01-10T03:57:58;39.50;;;14.70;;
70049;SDS011;57391;51.306;22.680;2024-01-10T04:00:00;40.70;;;14.60;;
70049;SDS011;57391;51.306;22.680;2024-01-10T04:02:03;40.90;;;15.10;;
70049;SDS011;57391;51.306;22.680;2024-01-10T04:04:05;44.50;;;15.70;;
70049;SDS011;57391;51.306;22.680;2024-01-10T04:06:06;43.90;;;16.10;;
70049;SDS011;57391;51.306;22.680;2024-01-10T04:08:08;43.60;;;15.70;;
70049;SDS011;57391;51.306;22.680;2024-01-10T04:10:10;35.80;;;14.50;;
70049;SDS011;57391;51.306;22.680;2024-01-10T04:12:15;38.80;;;14.20;;
70049;SDS011;57391;51.306;22.680;2024-01-10T04:14:16;46.50;;;16.70;;
70049;SDS011;57391;51.306;22.680;2024-01-10T04:16:18;40.70;;;14.90;;
70049;SDS011;57391;51.306;22.680;2024-01-10T04:18:20;34.30;;;12.80;;
70049;SDS011;57391;51.306;22.680;2024-01-10T04:20:22;33.70;;;11.00;;
70049;SDS011;57391;51.306;22.680;2024-01-10T04:22:24;30.80;;;11.80;;
70049;SDS011;57391;51.306;22.680;2024-01-10T04:24:26;38.50;;;14.70;;
70049;SDS011;57391;51.306;22.680;2024-01-10T04:26:28;36.90;;;13.00;;
70049;SDS011;57391;51.306;22.680;2024-01-10T04:28:29;43.90;;;15.70;;
70049;SDS011;57391;51.306;22.680;2024-01-10T04:30:31;39.60;;;14.90;;
70049;SDS011;57391;51.306;22.680;2024-01-10T04:32:33;33.50;;;12.90;;
70049;SDS011;57391;51.306;22.680;2024-01-10T04:34:36;41.40;;;15.90;;
70049;SDS011;57391;51.306;22.680;2024-01-10T04:36:38;42.40;;;15.10;;
70049;SDS011;57391;51.306;22.680;2024-01-10T04:38:39;34.80;;;11.20;;
70049;SDS011;57391;51.306;22.680;2024-01-10T04:40:41;39.40;;;14.70;;
70049;SDS011;57391;51.306;22.680;2024-01-10T04:42:44;39.20;;;13.00;;
70049;SDS011;57391;51.306;22.680;2024-01-10T04:44:46;43.90;;;15.10;;
70049;SDS011;57391;51.306;22.680;2024-01-10T04:46:48;30.20;;;11.90;;
70049;SDS011;57391;51.306;22.680;2024-01-10T04:48:49;39.00;;;14.10;;
70049;SDS011;57391;51.306;22.680;2024-01-10T04:50:51;47.40;;;16.40;;
70049;SDS011;57391;51.306;22.680;2024-01-10T04:52:53;45.80;;;16.40;;
70049;SDS011;57391;51.306;22.680;2024-01-10T04:54:54;37.70;;;13.60;;
70049;SDS011;57391;51.306;22.680;2024-01-10T04:56:56;40.70;;;14.80;;
70049;SDS011;57391;51.306;22.680;2024-01-10T04:58:58;45.70;;;14.60;;
70049;SDS011;57391;51.306;22.680;2024-01-10T05:01:00;43.60;;;17.70;;
70049;SDS011;57391;51.306;22.680;2024-01-10T05:03:01;41.00;;;15.80;;
70049;SDS011;57391;51.306;22.680;2024-01-10T05:05:03;39.70;;;14.40;;
70049;SDS011;57391;51.306;22.680;2024-01-10T05:07:06;36.90;;;14.80;;
70049;SDS011;57391;51.306;22.680;2024-01-10T05:09:07;33.70;;;12.70;;
70049;SDS011;57391;51.306;22.680;2024-01-10T05:11:11;41.50;;;14.50;;
70049;SDS011;57391;51.306;22.680;2024-01-10T05:13:13;31.90;;;11.90;;
70049;SDS011;57391;51.306;22.680;2024-01-10T05:15:15;44.30;;;14.90;;
70049;SDS011;57391;51.306;22.680;2024-01-10T05:17:17;37.90;;;14.10;;
70049;SDS011;57391;51.306;22.680;2024-01-10T05:19:19;30.40;;;11.00;;
70049;SDS011;57391;51.306;22.680;2024-01-10T05:21:21;34.90;;;12.40;;
70049;SDS011;57391;51.306;22.680;2024-01-10T05:23:23;39.10;;;13.50;;
70049;SDS011;57391;51.306;22.680;2024-01-10T05:25:25;34.60;;;12.30;;
70049;SDS011;57391;51.306;22.680;2024-01-10T05:27:29;30.90;;;11.20;;
70049;SDS011;57391;51.306;22.680;2024-01-10T05:29:30;36.60;;;13.90;;
70049;SDS011;57391;51.306;22.680;2024-01-10T05:31:32;36.20;;;13.30;;
70049;SDS011;57391;51.306;22.680;2024-01-10T05:33:34;34.80;;;12.80;;
70049;SDS011;57391;51.306;22.680;2024-01-10T05:35:36;40.30;;;14.20;;
70049;SDS011;57391;51.306;22.680;2024-01-10T05:37:39;45.10;;;14.70;;
70049;SDS011;57391;51.306;22.680;2024-01-10T05:39:41;38.10;;;13.30;;
70049;SDS011;57391;51.306;22.680;2024-01-10T05:41:43;37.70;;;12.70;;
70049;SDS011;57391;51.306;22.680;2024-01-10T05:43:47;31.80;;;12.00;;
70049;SDS011;57391;51.306;22.680;2024-01-10T05:45:49;30.40;;;11.00;;
70049;SDS011;57391;51.306;22.680;2024-01-10T05:47:51;35.20;;;11.70;;
70049;SDS011;57391;51.306;22.680;2024-01-10T05:49:54;39.20;;;13.70;;
70049;SDS011;57391;51.306;22.680;2024-01-10T05:51:56;31.00;;;13.10;;
70049;SDS011;57391;51.306;22.680;2024-01-10T05:53:58;32.80;;;11.30;;
70049;SDS011;57391;51.306;22.680;2024-01-10T05:55:59;37.60;;;13.10;;
70049;SDS011;57391;51.306;22.680;2024-01-10T05:58:02;29.60;;;10.70;;
70049;SDS011;57391;51.306;22.680;2024-01-10T06:00:04;40.50;;;14.20;;
70049;SDS011;57391;51.306;22.680;2024-01-10T06:02:11;40.50;;;13.10;;
70049;SDS011;57391;51.306;22.680;2024-01-10T06:04:12;35.70;;;13.60;;
70049;SDS011;57391;51.306;22.680;2024-01-10T06:06:14;51.60;;;17.80;;
70049;SDS011;57391;51.306;22.680;2024-01-10T06:08:16;43.30;;;15.10;;
70049;SDS011;57391;51.306;22.680;2024-01-10T06:10:17;51.80;;;18.10;;
70049;SDS011;57391;51.306;22.680;2024-01-10T06:12:19;47.00;;;17.40;;
70049;SDS011;57391;51.306;22.680;2024-01-10T06:14:21;39.00;;;13.80;;
70049;SDS011;57391;51.306;22.680;2024-01-10T06:16:23;46.10;;;17.50;;
70049;SDS011;57391;51.306;22.680;2024-01-10T06:18:24;46.70;;;18.30;;
70049;SDS011;57391;51.306;22.680;2024-01-10T06:20:26;34.90;;;13.80;;
70049;SDS011;57391;51.306;22.680;2024-01-10T06:22:29;29.20;;;10.00;;
70049;SDS011;57391;51.306;22.680;2024-01-10T06:24:31;46.40;;;17.00;;
70049;SDS011;57391;51.306;22.680;2024-01-10T06:26:32;43.40;;;15.80;;
70049;SDS011;57391;51.306;22.680;2024-01-10T06:28:34;45.60;;;16.50;;
70049;SDS011;57391;51.306;22.680;2024-01-10T06:30:36;33.30;;;13.10;;
70049;SDS011;57391;51.306;22.680;2024-01-10T06:32:40;39.50;;;13.40;;
70049;SDS011;57391;51.306;22.680;2024-01-10T06:34:42;37.20;;;14.40;;
70049;SDS011;57391;51.306;22.680;2024-01-10T06:36:44;37.80;;;12.50;;
70049;SDS011;57391;51.306;22.680;2024-01-10T06:38:45;41.40;;;14.90;;
70049;SDS011;57391;51.306;22.680;2024-01-10T06:40:48;43.10;;;17.00;;
70049;SDS011;57391;51.306;22.680;2024-01-10T06:42:50;41.00;;;15.60;;
70049;SDS011;57391;51.306;22.680;2024-01-10T06:44:52;37.40;;;14.00;;
70049;SDS011;57391;51.306;22.680;2024-01-10T06:46:54;35.90;;;11.00;;
70049;SDS011;57391;51.306;22.680;2024-01-10T06:48:58;47.00;;;16.20;;
70049;SDS011;57391;51.306;22.680;2024-01-10T06:51:00;37.20;;;14.20;;
70049;SDS011;57391;51.306;22.680;2024-01-10T06:53:02;44.60;;;16.80;;
70049;SDS011;57391;51.306;22.680;2024-01-10T06:55:04;38.10;;;15.00;;
70049;SDS011;57391;51.306;22.680;2024-01-10T06:57:07;46.10;;;16.80;;
70049;SDS011;57391;51.306;22.680;2024-01-10T06:59:09;51.00;;;16.60;;
70049;SDS011;57391;51.306;22.680;2024-01-10T07:01:12;37.20;;;13.60;;
70049;SDS011;57391;51.306;22.680;2024-01-10T07:03:14;45.70;;;17.00;;
70049;SDS011;57391;51.306;22.680;2024-01-10T07:05:16;44.50;;;16.40;;
70049;SDS011;57391;51.306;22.680;2024-01-10T07:07:18;39.60;;;15.80;;
70049;SDS011;57391;51.306;22.680;2024-01-10T07:09:19;40.20;;;13.50;;
70049;SDS011;57391;51.306;22.680;2024-01-10T07:11:21;38.30;;;14.00;;
70049;SDS011;57391;51.306;22.680;2024-01-10T07:13:23;38.60;;;14.90;;
70049;SDS011;57391;51.306;22.680;2024-01-10T07:15:25;43.00;;;15.30;;
70049;SDS011;57391;51.306;22.680;2024-01-10T07:17:27;39.30;;;13.50;;
70049;SDS011;57391;51.306;22.680;2024-01-10T07:19:29;39.60;;;14.50;;
70049;SDS011;57391;51.306;22.680;2024-01-10T07:21:30;34.20;;;12.30;;
70049;SDS011;57391;51.306;22.680;2024-01-10T07:23:32;42.10;;;14.60;;
70049;SDS011;57391;51.306;22.680;2024-01-10T07:25:35;40.40;;;14.80;;
70049;SDS011;57391;51.306;22.680;2024-01-10T07:27:38;41.90;;;15.20;;
70049;SDS011;57391;51.306;22.680;2024-01-10T07:29:40;43.50;;;17.10;;
70049;SDS011;57391;51.306;22.680;2024-01-10T07:31:42;34.90;;;12.40;;
70049;SDS011;57391;51.306;22.680;2024-01-10T07:33:44;38.10;;;14.70;;
70049;SDS011;57391;51.306;22.680;2024-01-10T07:35:46;43.20;;;16.30;;
70049;SDS011;57391;51.306;22.680;2024-01-10T07:37:47;40.00;;;14.80;;
70049;SDS011;57391;51.306;22.680;2024-01-10T07:39:49;41.50;;;15.10;;
70049;SDS011;57391;51.306;22.680;2024-01-10T07:41:52;38.00;;;13.10;;
70049;SDS011;57391;51.306;22.680;2024-01-10T07:43:53;43.40;;;16.50;;
70049;SDS011;57391;51.306;22.680;2024-01-10T07:45:55;42.40;;;15.70;;
70049;SDS011;57391;51.306;22.680;2024-01-10T07:47:57;59.30;;;19.80;;
70049;SDS011;57391;51.306;22.680;2024-01-10T07:49:58;39.00;;;16.00;;
70049;SDS011;57391;51.306;22.680;2024-01-10T07:52:00;44.20;;;16.00;;
70049;SDS011;57391;51.306;22.680;2024-01-10T07:54:03;45.70;;;16.90;;
70049;SDS011;57391;51.306;22.680;2024-01-10T07:56:05;37.00;;;14.80;;
70049;SDS011;57391;51.306;22.680;2024-01-10T07:58:07;47.90;;;18.20;;
70049;SDS011;57391;51.306;22.680;2024-01-10T08:00:09;34.90;;;13.00;;
70049;SDS011;57391;51.306;22.680;2024-01-10T08:02:12;48.80;;;17.20;;
70049;SDS011;57391;51.306;22.680;2024-01-10T08:04:14;37.20;;;14.30;;
70049;SDS011;57391;51.306;22.680;2024-01-10T08:06:15;42.10;;;16.20;;
70049;SDS011;57391;51.306;22.680;2024-01-10T08:08:17;40.60;;;15.70;;
70049;SDS011;57391;51.306;22.680;2024-01-10T08:10:19;41.30;;;16.40;;
70049;SDS011;57391;51.306;22.680;2024-01-10T08:12:21;42.70;;;16.30;;
70049;SDS011;57391;51.306;22.680;2024-01-10T08:14:23;42.70;;;17.70;;
70049;SDS011;57391;51.306;22.680;2024-01-10T08:16:25;41.00;;;15.00;;
70049;SDS011;57391;51.306;22.680;2024-01-10T08:18:27;41.40;;;15.60;;
70049;SDS011;57391;51.306;22.680;2024-01-10T08:20:29;38.80;;;15.60;;
70049;SDS011;57391;51.306;22.680;2024-01-10T08:22:31;36.20;;;14.70;;
70049;SDS011;57391;51.306;22.680;2024-01-10T08:24:33;44.80;;;17.40;;
70049;SDS011;57391;51.306;22.680;2024-01-10T08:26:35;38.20;;;14.40;;
70049;SDS011;57391;51.306;22.680;2024-01-10T08:28:37;34.70;;;13.00;;
70049;SDS011;57391;51.306;22.680;2024-01-10T08:30:39;47.30;;;17.40;;
70049;SDS011;57391;51.306;22.680;2024-01-10T08:32:41;36.90;;;14.10;;
70049;SDS011;57391;51.306;22.680;2024-01-10T08:34:43;39.10;;;14.60;;
70049;SDS011;57391;51.306;22.680;2024-01-10T08:36:46;46.20;;;17.10;;
70049;SDS011;57391;51.306;22.680;2024-01-10T08:38:51;40.80;;;14.30;;
70049;SDS011;57391;51.306;22.680;2024-01-10T08:40:53;39.50;;;16.00;;
70049;SDS011;57391;51.306;22.680;2024-01-10T08:42:55;40.70;;;14.20;;
70049;SDS011;57391;51.306;22.680;2024-01-10T08:44:56;42.50;;;16.90;;
70049;SDS011;57391;51.306;22.680;2024-01-10T08:46:58;37.20;;;14.60;;
70049;SDS011;57391;51.306;22.680;2024-01-10T08:49:00;35.20;;;15.10;;
70049;SDS011;57391;51.306;22.680;2024-01-10T08:51:02;41.70;;;16.00;;
70049;SDS011;57391;51.306;22.680;2024-01-10T08:53:04;36.90;;;13.50;;
70049;SDS011;57391;51.306;22.680;2024-01-10T08:55:07;34.30;;;14.10;;
70049;SDS011;57391;51.306;22.680;2024-01-10T08:57:09;38.70;;;15.20;;
70049;SDS011;57391;51.306;22.680;2024-01-10T08:59:11;33.10;;;13.40;;
70049;SDS011;57391;51.306;22.680;2024-01-10T09:01:13;42.40;;;16.60;;
70049;SDS011;57391;51.306;22.680;2024-01-10T09:03:15;40.10;;;15.80;;
70049;SDS011;57391;51.306;22.680;2024-01-10T09:05:17;34.30;;;14.50;;
70049;SDS011;57391;51.306;22.680;2024-01-10T09:07:19;38.50;;;14.50;;
70049;SDS011;57391;51.306;22.680;2024-01-10T09:09:22;42.20;;;16.00;;
70049;SDS011;57391;51.306;22.680;2024-01-10T09:11:24;39.60;;;15.40;;
70049;SDS011;57391;51.306;22.680;2024-01-10T09:13:26;33.70;;;15.20;;
70049;SDS011;57391;51.306;22.680;2024-01-10T09:15:28;37.50;;;14.90;;
70049;SDS011;57391;51.306;22.680;2024-01-10T09:17:30;35.80;;;14.90;;
70049;SDS011;57391;51.306;22.680;2024-01-10T09:19:32;36.70;;;14.70;;
70049;SDS011;57391;51.306;22.680;2024-01-10T09:21:33;32.50;;;12.30;;
70049;SDS011;57391;51.306;22.680;2024-01-10T09:23:36;42.60;;;17.10;;
70049;SDS011;57391;51.306;22.680;2024-01-10T09:25:38;39.50;;;16.30;;
70049;SDS011;57391;51.306;22.680;2024-01-10T09:27:40;33.40;;;13.50;;
70049;SDS011;57391;51.306;22.680;2024-01-10T09:29:45;34.90;;;14.30;;
70049;SDS011;57391;51.306;22.680;2024-01-10T09:31:46;34.80;;;14.40;;
70049;SDS011;57391;51.306;22.680;2024-01-10T09:33:48;35.40;;;14.10;;
70049;SDS011;57391;51.306;22.680;2024-01-10T09:35:50;36.00;;;15.00;;
70049;SDS011;57391;51.306;22.680;2024-01-10T09:37:52;38.20;;;15.60;;
70049;SDS011;57391;51.306;22.680;2024-01-10T09:39:55;43.90;;;17.10;;
70049;SDS011;57391;51.306;22.680;2024-01-10T09:41:57;44.90;;;17.70;;
70049;SDS011;57391;51.306;22.680;2024-01-10T09:43:59;38.90;;;15.00;;
70049;SDS011;57391;51.306;22.680;2024-01-10T09:46:02;43.60;;;15.70;;
70049;SDS011;57391;51.306;22.680;2024-01-10T09:48:06;36.90;;;15.00;;
70049;SDS011;57391;51.306;22.680;2024-01-10T09:50:08;40.50;;;15.60;;
70049;SDS011;57391;51.306;22.680;2024-01-10T09:52:16;29.70;;;11.70;;
70049;SDS011;57391;51.306;22.680;2024-01-10T09:54:26;36.10;;;13.90;;
70049;SDS011;57391;51.306;22.680;2024-01-10T09:56:32;36.70;;;14.70;;
70049;SDS011;57391;51.306;22.680;2024-01-10T09:58:34;31.00;;;12.40;;
70049;SDS011;57391;51.306;22.680;2024-01-10T10:00:40;33.60;;;14.00;;
70049;SDS011;57391;51.306;22.680;2024-01-10T10:02:42;56.10;;;18.20;;
70049;SDS011;57391;51.306;22.680;2024-01-10T10:05:04;40.50;;;16.60;;
70049;SDS011;57391;51.306;22.680;2024-01-10T10:07:09;40.00;;;16.40;;
70049;SDS011;57391;51.306;22.680;2024-01-10T10:09:12;41.90;;;17.00;;
70049;SDS011;57391;51.306;22.680;2024-01-10T10:11:14;38.90;;;14.60;;
70049;SDS011;57391;51.306;22.680;2024-01-10T10:13:27;41.60;;;15.90;;
70049;SDS011;57391;51.306;22.680;2024-01-10T10:15:30;47.70;;;17.10;;
70049;SDS011;57391;51.306;22.680;2024-01-10T10:17:32;35.80;;;13.40;;
70049;SDS011;57391;51.306;22.680;2024-01-10T10:19:33;30.50;;;13.20;;
70049;SDS011;57391;51.306;22.680;2024-01-10T10:21:35;31.60;;;11.80;;
70049;SDS011;57391;51.306;22.680;2024-01-10T10:23:41;26.00;;;10.70;;
70049;SDS011;57391;51.306;22.680;2024-01-10T10:25:45;34.40;;;13.20;;
70049;SDS011;57391;51.306;22.680;2024-01-10T10:27:50;28.40;;;12.30;;
70049;SDS011;57391;51.306;22.680;2024-01-10T10:29:54;32.20;;;13.00;;
70049;SDS011;57391;51.306;22.680;2024-01-10T10:31:55;32.70;;;13.20;;
70049;SDS011;57391;51.306;22.680;2024-01-10T10:33:59;34.50;;;13.50;;
70049;SDS011;57391;51.306;22.680;2024-01-10T10:36:03;31.30;;;12.10;;
70049;SDS011;57391;51.306;22.680;2024-01-10T10:38:07;26.90;;;10.60;;
70049;SDS011;57391;51.306;22.680;2024-01-10T10:40:12;32.90;;;12.40;;
70049;SDS011;57391;51.306;22.680;2024-01-10T10:42:14;31.80;;;13.10;;
70049;SDS011;57391;51.306;22.680;2024-01-10T10:44:18;31.20;;;12.30;;
70049;SDS011;57391;51.306;22.680;2024-01-10T10:46:26;36.00;;;12.90;;
70049;SDS011;57391;51.306;22.680;2024-01-10T10:48:32;38.00;;;14.80;;
70049;SDS011;57391;51.306;22.680;2024-01-10T10:50:36;33.10;;;13.90;;
70049;SDS011;57391;51.306;22.680;2024-01-10T10:52:38;39.20;;;14.30;;
70049;SDS011;57391;51.306;22.680;2024-01-10T10:54:46;32.30;;;12.90;;
70049;SDS011;57391;51.306;22.680;2024-01-10T10:56:50;31.50;;;11.50;;
70049;SDS011;57391;51.306;22.680;2024-01-10T10:58:53;29.20;;;11.90;;
70049;SDS011;57391;51.306;22.680;2024-01-10T11:00:57;33.20;;;14.20;;
70049;SDS011;57391;51.306;22.680;2024-01-10T11:03:01;30.80;;;12.50;;
70049;SDS011;57391;51.306;22.680;2024-01-10T11:05:06;26.90;;;11.10;;
70049;SDS011;57391;51.306;22.680;2024-01-10T11:07:10;36.80;;;14.00;;
70049;SDS011;57391;51.306;22.680;2024-01-10T11:09:14;37.70;;;14.60;;
70049;SDS011;57391;51.306;22.680;2024-01-10T11:11:34;33.10;;;13.40;;
70049;SDS011;57391;51.306;22.680;2024-01-10T11:16:48;37.80;;;14.20;;
70049;SDS011;57391;51.306;22.680;2024-01-10T11:19:25;34.50;;;13.20;;
70049;SDS011;57391;51.306;22.680;2024-01-10T11:24:01;33.80;;;12.90;;
70049;SDS011;57391;51.306;22.680;2024-01-10T11:26:04;30.50;;;12.20;;
70049;SDS011;57391;51.306;22.680;2024-01-10T11:28:08;33.30;;;12.50;;
70049;SDS011;57391;51.306;22.680;2024-01-10T11:30:10;25.90;;;11.10;;
70049;SDS011;57391;51.306;22.680;2024-01-10T11:32:15;33.70;;;12.90;;
70049;SDS011;57391;51.306;22.680;2024-01-10T11:34:24;32.60;;;13.60;;
70049;SDS011;57391;51.306;22.680;2024-01-10T11:36:27;33.00;;;12.80;;
70049;SDS011;57391;51.306;22.680;2024-01-10T11:38:30;36.20;;;14.80;;
70049;SDS011;57391;51.306;22.680;2024-01-10T11:40:47;32.80;;;13.80;;
70049;SDS011;57391;51.306;22.680;2024-01-10T11:42:52;34.80;;;14.00;;
70049;SDS011;57391;51.306;22.680;2024-01-10T11:44:54;36.90;;;14.50;;
70049;SDS011;57391;51.306;22.680;2024-01-10T11:46:57;38.40;;;14.20;;
70049;SDS011;57391;51.306;22.680;2024-01-10T11:49:00;28.30;;;11.90;;
70049;SDS011;57391;51.306;22.680;2024-01-10T11:51:02;31.30;;;12.90;;
70049;SDS011;57391;51.306;22.680;2024-01-10T11:53:05;39.10;;;15.30;;